地図

経路データ

SID SEASON NUMBER BASIN SUBBASIN NAME ISO_TIME NATURE LAT LON WMO_WIND WMO_PRES WMO_AGENCY TRACK_TYPE DIST2LAND LANDFALL IFLAG USA_AGENCY USA_ATCF_ID USA_LAT USA_LON USA_RECORD USA_STATUS USA_WIND USA_PRES USA_SSHS USA_R34_NE USA_R34_SE USA_R34_SW USA_R34_NW USA_R50_NE USA_R50_SE USA_R50_SW USA_R50_NW USA_R64_NE USA_R64_SE USA_R64_SW USA_R64_NW USA_POCI USA_ROCI USA_RMW USA_EYE TOKYO_LAT TOKYO_LON TOKYO_GRADE TOKYO_WIND TOKYO_PRES TOKYO_R50_DIR TOKYO_R50_LONG TOKYO_R50_SHORT TOKYO_R30_DIR TOKYO_R30_LONG TOKYO_R30_SHORT TOKYO_LAND CMA_LAT CMA_LON CMA_CAT CMA_WIND CMA_PRES HKO_LAT HKO_LON HKO_CAT HKO_WIND HKO_PRES NEWDELHI_LAT NEWDELHI_LON NEWDELHI_GRADE NEWDELHI_WIND NEWDELHI_PRES NEWDELHI_CI NEWDELHI_DP NEWDELHI_POCI REUNION_LAT REUNION_LON REUNION_TYPE REUNION_WIND REUNION_PRES REUNION_TNUM REUNION_CI REUNION_RMW REUNION_R34_NE REUNION_R34_SE REUNION_R34_SW REUNION_R34_NW REUNION_R50_NE REUNION_R50_SE REUNION_R50_SW REUNION_R50_NW REUNION_R64_NE REUNION_R64_SE REUNION_R64_SW REUNION_R64_NW BOM_LAT BOM_LON BOM_TYPE BOM_WIND BOM_PRES BOM_TNUM BOM_CI BOM_RMW BOM_R34_NE BOM_R34_SE BOM_R34_SW BOM_R34_NW BOM_R50_NE BOM_R50_SE BOM_R50_SW BOM_R50_NW BOM_R64_NE BOM_R64_SE BOM_R64_SW BOM_R64_NW BOM_ROCI BOM_POCI BOM_EYE BOM_POS_METHOD BOM_PRES_METHOD NADI_LAT NADI_LON NADI_CAT NADI_WIND NADI_PRES WELLINGTON_LAT WELLINGTON_LON WELLINGTON_WIND WELLINGTON_PRES DS824_LAT DS824_LON DS824_STAGE DS824_WIND DS824_PRES TD9636_LAT TD9636_LON TD9636_STAGE TD9636_WIND TD9636_PRES TD9635_LAT TD9635_LON TD9635_WIND TD9635_PRES TD9635_ROCI NEUMANN_LAT NEUMANN_LON NEUMANN_CLASS NEUMANN_WIND NEUMANN_PRES MLC_LAT MLC_LON MLC_CLASS MLC_WIND MLC_PRES USA_GUST BOM_GUST BOM_GUST_PER REUNION_GUST REUNION_GUST_PER USA_SEAHGT USA_SEARAD_NE USA_SEARAD_SE USA_SEARAD_SW USA_SEARAD_NW STORM_SPEED STORM_DIR
1940233N19087 1940 50 NI BB NOT_NAMED 1940-08-20 00:00:00 TS 19.0000 87.1000 main 133 133 _________O____ -1 19.0000 87.1000 TC 30 0 0
1940233N19087 1940 50 NI BB NOT_NAMED 1940-08-20 03:00:00 TS 19.0000 87.1000 main 133 133 _________PO___ -1 19.0000 87.1000 TC 30 19.0000 87.1000 1 0 0
1940233N19087 1940 50 NI BB NOT_NAMED 1940-08-20 06:00:00 TS 19.0056 87.0963 main 133 133 _________OP___ -1 19.0000 87.1000 TC 30 19.0141 87.0907 1 0 0
1940233N19087 1940 50 NI BB NOT_NAMED 1940-08-20 09:00:00 TS 19.0097 87.0936 main 133 133 _________PP___ -1 19.0000 87.1000 TC 30 19.0225 87.0851 1 0 0
1940233N19087 1940 50 NI BB NOT_NAMED 1940-08-20 12:00:00 TS 19.0099 87.0935 main 133 133 _________OP___ -1 19.0000 87.1000 TC 30 19.0197 87.0869 1 0 0
1940233N19087 1940 50 NI BB NOT_NAMED 1940-08-20 15:00:00 TS 19.0000 87.1000 main 133 133 _________PO___ -1 19.0000 87.1000 TC 30 19.0000 87.1000 1 0 135
1940233N19087 1940 50 NI BB NOT_NAMED 1940-08-20 18:00:00 TS 18.9817 87.1121 main 133 133 _________OP___ -1 19.0000 87.1000 TC 30 18.9634 87.1242 1 1 144
1940233N19087 1940 50 NI BB NOT_NAMED 1940-08-20 21:00:00 TS 18.9550 87.1299 main 133 133 _________PP___ -1 18.9775 87.1150 TC 30 18.9324 87.1447 1 0 0
1940233N19087 1940 50 NI BB NOT_NAMED 1940-08-21 00:00:00 TS 18.9676 87.1214 main 133 133 _________OP___ -1 19.0000 87.1000 TC 30 18.9352 87.1429 1 1 331
1940233N19087 1940 50 NI BB NOT_NAMED 1940-08-21 03:00:00 TS 19.0525 87.0650 main 124 109 _________PO___ -1 19.1050 87.0299 TC 30 19.0000 87.1000 1 3 328
1940233N19087 1940 50 NI BB NOT_NAMED 1940-08-21 06:00:00 TS 19.2302 86.9507 main 109 69 _________OP___ -1 19.3000 86.9000 TC 30 19.1603 87.0014 1 5 329
1940233N19087 1940 50 NI BB NOT_NAMED 1940-08-21 09:00:00 TS 19.4838 86.7876 main 69 30 _________PP___ -1 19.5850 86.7151 TC 30 19.3825 86.8602 1 6 328
1940233N19087 1940 50 NI BB NOT_NAMED 1940-08-21 12:00:00 TS 19.7692 86.5944 main 30 0 _________OP___ -1 19.9000 86.5000 TC 30 19.6384 86.6888 1 7 326
1940233N19087 1940 50 NI BB NOT_NAMED 1940-08-21 15:00:00 TS 20.0325 86.4000 main 0 0 _________PO___ -1 20.1650 86.2999 TC 30 19.9000 86.5000 1 6 324
1940233N19087 1940 50 NI BB NOT_NAMED 1940-08-21 18:00:00 TS 20.2747 86.1992 main 0 0 _________OP___ -1 20.4000 86.1000 TC 30 20.1495 86.2984 1 6 321
1940233N19087 1940 50 NI BB NOT_NAMED 1940-08-21 21:00:00 TS 20.5126 85.9852 main 0 0 _________PP___ -1 20.6300 85.8850 TC 30 20.3952 86.0854 1 6 318
1940233N19087 1940 50 NI BB NOT_NAMED 1940-08-22 00:00:00 TS 20.7091 85.7898 main 0 0 _________OP___ -1 20.8000 85.7000 TC 30 20.6182 85.8797 1 5 315
1940233N19087 1940 50 NI BB NOT_NAMED 1940-08-22 03:00:00 TS 20.8325 85.6424 main 0 0 _________PO___ -1 20.8650 85.5849 TC 30 20.8000 85.7000 1 3 310
1940233N19087 1940 50 NI BB NOT_NAMED 1940-08-22 06:00:00 TS 20.9090 85.5354 main 0 0 _________OP___ -1 20.9000 85.5000 TC 30 20.9180 85.5709 1 3 310
1940233N19087 1940 50 NI BB NOT_NAMED 1940-08-22 09:00:00 TS 20.9937 85.4348 main 0 0 _________PP___ -1 20.9925 85.4000 TC 30 20.9948 85.4696 1 2 312
1940233N19087 1940 50 NI BB NOT_NAMED 1940-08-22 12:00:00 TS 21.0746 85.3418 main 0 0 _________OP___ -1 21.1000 85.3000 TC 30 21.0493 85.3835 1 2 313
1940233N19087 1940 50 NI BB NOT_NAMED 1940-08-22 15:00:00 TS 21.1537 85.2500 main 0 0 _________PO___ -1 21.2075 85.2000 TC 30 21.1000 85.3000 1 2 316
1940233N19087 1940 50 NI BB NOT_NAMED 1940-08-22 18:00:00 TS 21.2290 85.1842 main 0 0 _________OP___ -1 21.3000 85.1000 TC 30 21.1581 85.2685 1 2 321
1940233N19087 1940 50 NI BB NOT_NAMED 1940-08-22 21:00:00 TS 21.2768 85.1431 main 0 0 _________PP___ -1 21.3347 85.0597 TC 30 21.2188 85.2265 1 2 306
1940233N19087 1940 50 NI BB NOT_NAMED 1940-08-23 00:00:00 TS 21.3476 85.0107 main 0 0 _________OP___ -1 21.4000 84.9000 TC 30 21.2952 85.1213 1 5 297
1940233N19087 1940 50 NI BB NOT_NAMED 1940-08-23 03:00:00 TS 21.4926 84.6839 main 0 0 _________PO___ -1 21.5852 84.4678 TC 30 21.4000 84.9000 1 8 293
1940233N19087 1940 50 NI BB NOT_NAMED 1940-08-23 06:00:00 TS 21.6757 84.1928 main 0 0 _________OP___ -1 21.8000 83.9000 TC 30 21.5513 84.4857 1 10 290
1940233N19087 1940 50 NI BB NOT_NAMED 1940-08-23 09:00:00 TS 21.8433 83.6492 main 0 0 _________PP___ -1 21.9575 83.3424 TC 30 21.7290 83.9559 1 11 288
1940233N19087 1940 50 NI BB NOT_NAMED 1940-08-23 12:00:00 TS 22.0085 83.0865 main 0 0 _________OP___ -1 22.1000 82.8000 TC 30 21.9169 83.3731 1 11 288
1940233N19087 1940 50 NI BB NOT_NAMED 1940-08-23 15:00:00 TS 22.1749 82.5674 main 0 0 _________PO___ -1 22.2497 82.3349 TC 30 22.1000 82.8000 1 10 289
1940233N19087 1940 50 NI BB NOT_NAMED 1940-08-23 18:00:00 TS 22.3242 82.1119 main 0 0 _________OP___ -1 22.4000 81.9000 TC 30 22.2484 82.3237 1 9 289
1940233N19087 1940 50 NI BB NOT_NAMED 1940-08-23 21:00:00 TS 22.4670 81.6595 main 0 0 _________PP___ -1 22.5424 81.4498 TC 30 22.3917 81.8691 1 9 290
1940233N19087 1940 50 NI BB NOT_NAMED 1940-08-24 00:00:00 TS 22.6196 81.2150 main 0 0 _________OP___ -1 22.7000 81.0000 TC 30 22.5392 81.4300 1 9 292
1940233N19087 1940 50 NI BB NOT_NAMED 1940-08-24 03:00:00 TS 22.7962 80.7712 main 0 0 _________PO___ -1 22.8924 80.5425 TC 30 22.7000 81.0000 1 9 295
1940233N19087 1940 50 NI BB NOT_NAMED 1940-08-24 06:00:00 TS 22.9968 80.3279 main 0 0 _________OP___ -1 23.1000 80.1000 TC 30 22.8935 80.5558 1 9 297
1940233N19087 1940 50 NI BB NOT_NAMED 1940-08-24 09:00:00 TS 23.2036 79.9026 main 0 0 _________PP___ -1 23.3074 79.6849 TC 30 23.0998 80.1202 1 9 298
1940233N19087 1940 50 NI BB NOT_NAMED 1940-08-24 12:00:00 TS 23.4030 79.4998 main 0 0 _________OP___ -1 23.5000 79.3000 TC 30 23.3061 79.6995 1 8 298
1940233N19087 1940 50 NI BB NOT_NAMED 1940-08-24 15:00:00 TS 23.5787 79.1212 main 0 0 _________PO___ -1 23.6574 78.9423 TC 30 23.5000 79.3000 1 8 296
1940233N19087 1940 50 NI BB NOT_NAMED 1940-08-24 18:00:00 TS 23.7341 78.7559 main 0 0 _________OP___ -1 23.8000 78.6000 TC 30 23.6682 78.9118 1 7 295
1940233N19087 1940 50 NI BB NOT_NAMED 1940-08-24 21:00:00 TS 23.8861 78.3910 main 0 0 _________PP___ -1 23.9500 78.2350 TC 30 23.8222 78.5471 1 7 295
1940233N19087 1940 50 NI BB NOT_NAMED 1940-08-25 00:00:00 TS 24.0326 78.0544 main 0 0 _________OP___ -1 24.1000 77.9000 TC 30 23.9651 78.2088 1 6 297
1940233N19087 1940 50 NI AS NOT_NAMED 1940-08-25 03:00:00 TS 24.1787 77.7675 main 0 0 _________PO___ -1 24.2574 77.6349 TC 30 24.1000 77.9000 1 6 300
1940233N19087 1940 50 NI AS NOT_NAMED 1940-08-25 06:00:00 TS 24.3158 77.5145 main 0 0 _________OP___ -1 24.4000 77.4000 TC 30 24.2317 77.6290 1 5 299
1940233N19087 1940 50 NI AS NOT_NAMED 1940-08-25 09:00:00 TS 24.4284 77.2709 main 0 0 _________PP___ -1 24.4999 77.1573 TC 30 24.3568 77.3844 1 5 297
1940233N19087 1940 50 NI AS NOT_NAMED 1940-08-25 12:00:00 TS 24.5393 77.0239 main 0 0 _________OP___ -1 24.6000 76.9000 TC 30 24.4786 77.1477 1 5 298
1940233N19087 1940 50 NI AS NOT_NAMED 1940-08-25 15:00:00 TS 24.6750 76.7538 main 0 0 _________PO___ -1 24.7500 76.6076 TC 30 24.6000 76.9000 1 6 298
1940233N19087 1940 50 NI AS NOT_NAMED 1940-08-25 18:00:00 TS 24.7990 76.4867 main 0 0 _________OP___ -1 24.9000 76.3000 TC 30 24.7233 76.6267 1 6 295
1940233N19087 1940 50 NI AS NOT_NAMED 1940-08-25 21:00:00 TS 24.9140 76.1974 main 0 0 _________PP___ -1 25.0126 75.9975 TC 30 24.8483 76.3307 1 6 293
1940233N19087 1940 50 NI AS NOT_NAMED 1940-08-26 00:00:00 TS 25.0161 75.9129 main 0 0 _________OP___ -1 25.1000 75.7000 TC 30 24.9741 76.0194 1 5 292
1940233N19087 1940 50 NI AS NOT_NAMED 1940-08-26 03:00:00 NR 25.1000 75.7000 main 0 __________O___ -1 TC 25.1000 75.7000 1 4 294

IBTrACS Databaseについて

本データベースは、米国NOAAが公開する1842年以降の世界の熱帯低気圧のベストトラックデータアーカイブInternational Best Track Archive for Climate Stewardship (IBTrACS)を、ウェブで閲覧しやすい形式に変換したものです。

最終更新日:2021-12-03